Time;durP1;ratioP1;P1;durP2;ratioP2;P2;SDS_P1;SDS_P2;PMS_P1;PMS_P2;Temp;Humidity;BMP_temperature;BMP_pressure;BME280_temperature;BME280_humidity;BME280_pressure;Samples;Min_cycle;Max_cycle;Signal;HPM_P1;HPM_P2
2021/11/20 00:01:12;;;;;;;32.97;16.77;;;10.80;89.00;;;;;;4994524;28;92969;-69
2021/11/20 00:03:44;;;;;;;36.67;15.45;;;10.90;89.60;;;;;;4993996;28;92523;-69
2021/11/20 00:06:14;;;;;;;33.03;15.68;;;10.90;89.00;;;;;;4995515;28;92438;-69
2021/11/20 00:08:41;;;;;;;35.38;15.27;;;10.90;89.20;;;;;;4992575;28;98172;-69
2021/11/20 00:11:11;;;;;;;29.55;14.80;;;10.90;89.20;;;;;;4994879;28;110540;-70
2021/11/20 00:13:41;;;;;;;35.53;15.05;;;10.90;89.10;;;;;;4994976;28;92463;-69
2021/11/20 00:16:10;;;;;;;29.25;14.70;;;10.90;89.00;;;;;;4993804;28;92451;-69
2021/11/20 00:18:39;;;;;;;30.42;15.32;;;10.90;89.20;;;;;;4994888;28;93056;-69
2021/11/20 00:21:10;;;;;;;32.92;16.25;;;10.90;89.10;;;;;;4993566;28;92785;-69
2021/11/20 00:23:41;;;;;;;32.40;15.07;;;10.90;89.20;;;;;;4993825;28;93078;-70
2021/11/20 00:26:11;;;;;;;36.80;14.85;;;10.90;89.10;;;;;;4995766;28;92163;-70
2021/11/20 00:31:34;;;;;;;34.35;15.13;;;11.00;89.10;;;;;;4993661;28;95360;-69
2021/11/20 00:34:01;;;;;;;34.63;15.52;;;11.00;89.20;;;;;;4992578;28;94910;-69
2021/11/20 00:36:28;;;;;;;31.80;15.30;;;11.00;89.10;;;;;;4977369;28;92486;-70
2021/11/20 00:38:57;;;;;;;34.50;16.30;;;11.00;89.10;;;;;;4994770;28;93185;-69
2021/11/20 00:41:28;;;;;;;30.00;14.32;;;11.00;89.30;;;;;;4977554;28;93905;-69
2021/11/20 00:43:57;;;;;;;35.75;17.30;;;11.00;89.30;;;;;;4993194;28;92507;-69
2021/11/20 00:46:29;;;;;;;30.70;14.27;;;11.00;89.50;;;;;;4993518;28;92647;-70
2021/11/20 00:48:56;;;;;;;34.40;15.48;;;11.00;89.50;;;;;;4994796;28;92893;-70
2021/11/20 00:51:26;;;;;;;31.95;16.27;;;11.00;89.80;;;;;;4995246;28;91965;-70
2021/11/20 00:53:54;;;;;;;31.90;15.73;;;11.00;89.80;;;;;;4992957;28;92542;-69
2021/11/20 00:56:26;;;;;;;27.98;14.95;;;11.00;89.80;;;;;;4993510;28;92481;-70
2021/11/20 00:58:55;;;;;;;31.33;15.35;;;11.10;89.70;;;;;;4991895;28;98109;-69
2021/11/20 01:01:33;;;;;;;33.17;15.05;;;11.10;89.70;;;;;;4992975;28;105788;-69
2021/11/20 01:04:01;;;;;;;33.10;14.57;;;11.10;89.60;;;;;;4993249;28;92483;-70
2021/11/20 01:06:28;;;;;;;39.03;16.58;;;11.10;89.70;;;;;;4992898;28;92451;-70
2021/11/20 01:08:56;;;;;;;30.95;14.55;;;11.10;89.50;;;;;;4992820;28;94355;-69
2021/11/20 01:11:35;;;;;;;30.27;15.73;;;11.20;89.70;;;;;;4976721;28;95918;-70
2021/11/20 01:14:06;;;;;;;31.33;15.43;;;11.30;89.70;;;;;;4993078;28;92444;-69
2021/11/20 01:16:35;;;;;;;32.85;15.90;;;11.30;89.60;;;;;;4993633;28;91857;-70
2021/11/20 01:19:04;;;;;;;38.42;16.33;;;11.30;89.50;;;;;;4994221;28;92732;-70
2021/11/20 01:22:03;;;;;;;37.53;16.95;;;11.30;89.40;;;;;;4956548;28;93076;-69
2021/11/20 01:24:46;;;;;;;31.30;15.55;;;11.30;89.40;;;;;;4991585;28;94802;-69
2021/11/20 01:27:19;;;;;;;32.80;16.02;;;11.30;88.90;;;;;;4993092;28;92845;-70
2021/11/20 01:29:51;;;;;;;32.65;15.80;;;11.30;88.80;;;;;;4992564;28;94420;-70
2021/11/20 01:32:19;;;;;;;41.15;16.58;;;11.30;88.60;;;;;;4993832;28;95328;-69
2021/11/20 01:34:46;;;;;;;36.47;17.60;;;11.30;88.60;;;;;;4996175;28;92434;-70
2021/11/20 01:37:15;;;;;;;43.90;16.58;;;11.40;88.60;;;;;;4996553;28;92500;-70
2021/11/20 01:39:47;;;;;;;36.13;18.30;;;11.30;88.50;;;;;;4996236;28;95435;-70
2021/11/20 01:42:31;;;;;;;36.70;17.27;;;11.30;88.40;;;;;;4996194;28;95317;-70
2021/11/20 01:45:18;;;;;;;35.28;17.52;;;11.30;88.50;;;;;;4996326;28;92494;-70
2021/11/20 01:48:06;;;;;;;38.00;18.40;;;11.30;88.60;;;;;;4997876;28;92466;-70
2021/11/20 01:50:40;;;;;;;42.47;18.60;;;11.20;88.70;;;;;;4994552;28;97050;-70
2021/11/20 01:53:21;;;;;;;44.40;19.65;;;11.20;88.90;;;;;;4995740;28;97718;-70
2021/11/20 01:56:05;;;;;;;43.97;19.40;;;11.20;88.70;;;;;;4997752;28;92455;-69
2021/11/20 01:58:59;;;;;;;40.92;19.25;;;11.20;89.00;;;;;;4995902;28;93554;-69
2021/11/20 02:02:00;;;;;;;42.35;19.13;;;11.10;89.20;;;;;;4967715;28;92961;-70
2021/11/20 02:05:13;;;;;;;43.92;20.90;;;11.10;89.20;;;;;;4996480;28;93905;-69
2021/11/20 02:08:13;;;;;;;46.70;20.88;;;11.10;89.10;;;;;;4995313;28;92536;-69
2021/11/20 02:10:49;;;;;;;48.10;20.52;;;11.10;89.30;;;;;;4996581;28;92048;-69
2021/11/20 02:13:20;;;;;;;47.72;20.90;;;11.00;89.50;;;;;;4995907;28;94199;-69
2021/11/20 02:15:55;;;;;;;47.95;22.85;;;11.00;89.50;;;;;;4995546;28;93981;-69
2021/11/20 02:18:26;;;;;;;46.70;22.63;;;11.10;89.50;;;;;;4994754;28;94841;-70
2021/11/20 02:21:05;;;;;;;45.03;22.15;;;11.10;89.60;;;;;;4995538;28;92792;-69
2021/11/20 02:23:45;;;;;;;47.92;22.52;;;11.10;89.60;;;;;;4995483;28;95881;-69
2021/11/20 02:26:12;;;;;;;46.53;22.00;;;11.10;89.50;;;;;;4995426;28;95458;-69
2021/11/20 02:28:51;;;;;;;44.83;22.85;;;11.10;89.50;;;;;;4995437;28;92494;-70
2021/11/20 02:31:46;;;;;;;44.42;23.27;;;11.20;89.70;;;;;;4995656;28;92550;-70
2021/11/20 02:34:15;;;;;;;41.60;23.15;;;11.20;89.60;;;;;;4994845;28;95550;-69
2021/11/20 02:36:45;;;;;;;38.40;21.33;;;11.20;89.70;;;;;;4995671;28;95059;-70
2021/11/20 02:39:18;;;;;;;43.67;22.77;;;11.30;89.70;;;;;;4978785;28;92568;-69
2021/11/20 02:41:48;;;;;;;42.75;23.63;;;11.30;89.60;;;;;;4995544;28;92963;-70
2021/11/20 02:44:18;;;;;;;41.95;22.98;;;11.40;89.40;;;;;;4992739;28;97944;-69
2021/11/20 02:46:50;;;;;;;39.92;21.50;;;11.40;89.20;;;;;;4995043;28;97576;-69
2021/11/20 02:49:17;;;;;;;38.50;21.35;;;11.40;89.10;;;;;;4996511;28;92342;-70
2021/11/20 02:52:07;;;;;;;36.47;20.42;;;11.40;89.00;;;;;;4994785;28;92465;-70
2021/11/20 02:54:36;;;;;;;33.42;20.27;;;11.50;89.10;;;;;;4994918;28;94127;-70
2021/11/20 02:57:17;;;;;;;39.88;21.27;;;11.50;89.10;;;;;;4978473;28;92848;-69
2021/11/20 02:59:44;;;;;;;36.85;21.40;;;11.50;88.90;;;;;;4995116;28;92516;-69
2021/11/20 03:02:18;;;;;;;41.63;22.10;;;11.50;88.90;;;;;;4995387;28;92258;-69
2021/11/20 03:04:46;;;;;;;33.65;21.02;;;11.50;88.80;;;;;;4978571;28;95396;-70
2021/11/20 03:07:14;;;;;;;35.20;21.10;;;11.50;88.70;;;;;;4994279;28;95054;-69
2021/11/20 03:09:42;;;;;;;37.35;20.67;;;11.60;88.70;;;;;;4985894;28;94910;-70
2021/11/20 03:12:18;;;;;;;35.40;20.27;;;11.60;88.50;;;;;;4974706;28;92481;-70
2021/11/20 03:14:52;;;;;;;42.13;21.77;;;11.70;88.40;;;;;;4974342;28;95088;-70
2021/11/20 03:17:24;;;;;;;36.00;21.60;;;11.70;88.30;;;;;;4974778;28;95964;-70
2021/11/20 03:19:51;;;;;;;35.47;21.60;;;11.70;88.30;;;;;;4974813;28;92577;-69
2021/11/20 03:22:28;;;;;;;31.48;19.88;;;11.80;88.20;;;;;;4974575;28;92454;-70
2021/11/20 03:24:56;;;;;;;34.60;20.95;;;11.80;88.00;;;;;;4974764;28;94162;-70
2021/11/20 03:27:23;;;;;;;32.42;20.65;;;11.80;87.90;;;;;;4974726;28;95202;-70
2021/11/20 03:29:51;;;;;;;28.67;19.88;;;11.80;87.70;;;;;;4974727;28;92731;-70
2021/11/20 03:32:18;;;;;;;32.88;20.65;;;11.90;87.60;;;;;;4974242;28;92530;-69
2021/11/20 03:34:46;;;;;;;32.53;20.50;;;11.90;87.50;;;;;;4973301;28;96522;-69
2021/11/20 03:37:22;;;;;;;30.77;20.67;;;11.90;87.40;;;;;;4974363;28;97721;-69
2021/11/20 03:39:52;;;;;;;31.70;19.35;;;11.90;87.30;;;;;;4974725;28;92554;-70
2021/11/20 03:42:20;;;;;;;34.53;20.48;;;11.80;87.30;;;;;;4958276;28;92500;-69
2021/11/20 03:44:48;;;;;;;30.88;19.58;;;11.90;87.30;;;;;;4973956;28;95542;-70
2021/11/20 03:47:18;;;;;;;26.45;18.60;;;11.90;87.30;;;;;;4974053;28;95182;-70
2021/11/20 03:49:45;;;;;;;27.23;17.95;;;11.90;87.20;;;;;;4958312;28;92483;-69
2021/11/20 03:52:17;;;;;;;32.15;17.65;;;11.90;87.10;;;;;;4974772;28;91858;-70
2021/11/20 03:54:46;;;;;;;29.88;17.67;;;11.90;87.00;;;;;;4973586;28;94883;-70
2021/11/20 03:57:16;;;;;;;24.98;18.33;;;11.90;87.00;;;;;;4974076;28;95478;-70
2021/11/20 03:59:43;;;;;;;31.80;18.63;;;11.90;86.90;;;;;;4973162;28;94853;-69
2021/11/20 04:02:11;;;;;;;24.50;17.63;;;12.00;86.90;;;;;;4974179;28;92503;-69
2021/11/20 04:04:38;;;;;;;26.08;16.92;;;12.00;86.80;;;;;;4974000;28;95618;-69
2021/11/20 04:07:05;;;;;;;26.23;17.55;;;12.00;86.80;;;;;;4974120;28;95260;-70
2021/11/20 04:09:32;;;;;;;23.48;17.33;;;12.00;86.70;;;;;;4974204;28;92896;-69
2021/11/20 04:12:06;;;;;;;25.73;16.50;;;12.00;86.60;;;;;;4974137;28;92505;-69
2021/11/20 04:14:35;;;;;;;21.33;16.38;;;12.00;86.50;;;;;;4974128;28;95752;-70
2021/11/20 04:17:03;;;;;;;25.42;16.63;;;12.00;86.50;;;;;;4974448;28;93972;-70
2021/11/20 04:19:32;;;;;;;21.83;16.10;;;12.10;86.40;;;;;;4973922;28;92454;-70
2021/11/20 04:21:59;;;;;;;22.13;16.00;;;12.10;86.40;;;;;;4975637;28;92374;-70
2021/11/20 04:24:28;;;;;;;26.25;16.30;;;12.10;86.40;;;;;;4956612;28;97997;-70
2021/11/20 04:27:05;;;;;;;21.63;16.42;;;12.10;86.30;;;;;;4973008;28;95159;-69
2021/11/20 04:29:55;;;;;;;26.58;16.17;;;12.10;86.30;;;;;;4974032;28;92594;-69
2021/11/20 04:32:23;;;;;;;24.20;17.10;;;12.10;86.30;;;;;;4973687;28;92549;-70
2021/11/20 04:34:51;;;;;;;24.42;15.85;;;12.10;86.40;;;;;;4957485;28;94775;-69
2021/11/20 04:37:19;;;;;;;24.65;16.55;;;12.10;86.30;;;;;;4973389;28;93996;-69
2021/11/20 04:39:46;;;;;;;26.83;16.20;;;12.10;86.30;;;;;;4973718;28;92471;-69
2021/11/20 04:42:15;;;;;;;23.95;17.48;;;12.10;86.20;;;;;;4973893;28;91817;-70
2021/11/20 04:44:42;;;;;;;25.67;16.60;;;12.10;86.20;;;;;;4973349;28;95636;-69
2021/11/20 04:47:10;;;;;;;26.02;17.77;;;12.10;86.10;;;;;;4973525;28;95629;-70
2021/11/20 04:49:37;;;;;;;21.77;16.17;;;12.10;86.10;;;;;;4972559;28;94806;-69
2021/11/20 04:52:09;;;;;;;25.75;16.63;;;12.20;86.20;;;;;;4973816;28;92582;-70
2021/11/20 04:54:36;;;;;;;25.98;16.40;;;12.10;86.10;;;;;;4973258;28;95705;-69
2021/11/20 04:57:21;;;;;;;24.80;16.63;;;12.10;86.20;;;;;;4973257;28;95502;-69
2021/11/20 04:59:48;;;;;;;25.63;17.17;;;12.10;86.10;;;;;;4973686;28;92547;-70
2021/11/20 05:02:19;;;;;;;23.25;15.57;;;12.20;86.20;;;;;;4957864;28;92498;-69
2021/11/20 05:04:47;;;;;;;24.08;17.13;;;12.20;86.00;;;;;;4973364;28;94644;-70
2021/11/20 05:07:15;;;;;;;23.10;16.58;;;12.20;86.20;;;;;;4974350;28;94139;-70
2021/11/20 05:09:42;;;;;;;25.33;16.92;;;12.20;86.10;;;;;;4977103;28;92571;-69
2021/11/20 05:12:09;;;;;;;25.77;17.15;;;12.20;86.10;;;;;;4977089;28;93034;-70
2021/11/20 05:14:38;;;;;;;26.17;16.45;;;12.20;86.00;;;;;;4975112;28;97816;-70
2021/11/20 05:17:06;;;;;;;26.65;17.27;;;12.20;86.10;;;;;;4976581;28;97823;-70
2021/11/20 05:19:37;;;;;;;23.95;16.00;;;12.20;86.00;;;;;;4976788;28;92556;-69
2021/11/20 05:22:05;;;;;;;21.58;15.85;;;12.20;85.90;;;;;;4976820;28;92498;-70
2021/11/20 05:24:34;;;;;;;22.45;16.05;;;12.20;85.90;;;;;;4976438;28;95613;-70
2021/11/20 05:27:02;;;;;;;24.58;16.30;;;12.20;85.90;;;;;;4960430;28;94398;-69
2021/11/20 05:29:53;;;;;;;28.23;17.55;;;12.20;85.70;;;;;;4976383;28;92490;-70
2021/11/20 05:32:20;;;;;;;24.70;17.38;;;12.20;85.70;;;;;;4960644;28;91588;-70
2021/11/20 05:34:50;;;;;;;22.05;16.70;;;12.20;85.80;;;;;;4976528;28;95419;-70
2021/11/20 05:37:17;;;;;;;28.15;16.88;;;12.20;85.70;;;;;;4976563;28;95096;-70
2021/11/20 05:39:45;;;;;;;24.17;16.67;;;12.20;85.80;;;;;;4975347;28;94843;-70
2021/11/20 05:42:12;;;;;;;26.02;16.42;;;12.20;85.60;;;;;;4976475;28;92507;-70
2021/11/20 05:44:39;;;;;;;26.70;17.38;;;12.20;85.60;;;;;;4975597;28;95163;-69
2021/11/20 05:47:11;;;;;;;25.98;16.92;;;12.10;85.50;;;;;;4976230;28;95642;-70
2021/11/20 05:49:41;;;;;;;28.05;17.20;;;12.10;85.80;;;;;;4977477;28;92476;-69
2021/11/20 05:52:12;;;;;;;26.25;17.38;;;12.10;85.70;;;;;;4976019;28;92500;-69
2021/11/20 05:54:40;;;;;;;28.83;16.98;;;12.20;85.60;;;;;;4977368;28;93145;-70
2021/11/20 05:57:11;;;;;;;25.95;17.10;;;12.20;85.50;;;;;;4976567;28;95513;-70
2021/11/20 05:59:39;;;;;;;27.60;18.02;;;12.20;85.50;;;;;;4975977;28;92489;-70
2021/11/20 06:02:09;;;;;;;22.45;16.52;;;12.20;85.40;;;;;;4976088;28;92543;-70
2021/11/20 06:04:41;;;;;;;28.80;17.67;;;12.20;85.50;;;;;;4974141;28;97983;-70
2021/11/20 06:07:11;;;;;;;26.40;18.50;;;12.20;85.40;;;;;;4975861;28;97845;-69
2021/11/20 06:09:42;;;;;;;27.27;18.48;;;12.20;85.30;;;;;;4960304;28;92634;-70
2021/11/20 06:12:11;;;;;;;26.77;18.40;;;12.20;85.60;;;;;;4976086;28;92613;-70
2021/11/20 06:14:39;;;;;;;28.15;17.25;;;12.20;85.40;;;;;;4975487;28;95485;-70
2021/11/20 06:17:07;;;;;;;27.98;19.20;;;12.20;85.40;;;;;;4975620;28;95565;-70
2021/11/20 06:19:35;;;;;;;28.52;19.27;;;12.20;85.40;;;;;;4975180;28;92415;-69
2021/11/20 06:22:03;;;;;;;29.60;18.48;;;12.20;85.10;;;;;;4976160;28;91724;-69
2021/11/20 06:24:32;;;;;;;26.73;18.52;;;12.20;85.10;;;;;;4975564;28;95019;-70
2021/11/20 06:26:59;;;;;;;29.30;20.35;;;12.20;85.20;;;;;;4977100;28;93277;-70
2021/11/20 06:29:27;;;;;;;28.65;18.75;;;12.20;85.10;;;;;;4974250;28;94842;-69
2021/11/20 06:32:03;;;;;;;27.02;19.58;;;12.20;85.20;;;;;;4975647;28;93232;-70
2021/11/20 06:34:45;;;;;;;27.63;18.95;;;12.20;85.00;;;;;;4975374;28;94939;-70
2021/11/20 06:37:37;;;;;;;24.50;18.38;;;12.10;85.10;;;;;;4975246;28;94167;-70
2021/11/20 06:40:12;;;;;;;26.63;18.33;;;12.10;85.20;;;;;;4975317;28;92586;-70
2021/11/20 06:42:41;;;;;;;29.33;19.33;;;12.20;85.00;;;;;;4975049;28;92913;-70
2021/11/20 06:45:11;;;;;;;28.02;18.63;;;12.10;85.00;;;;;;4974954;28;95277;-70
2021/11/20 06:47:38;;;;;;;26.73;20.70;;;12.20;85.00;;;;;;4975314;28;95529;-70
2021/11/20 06:50:06;;;;;;;27.15;19.67;;;12.10;85.10;;;;;;4975312;28;92539;-70
2021/11/20 06:52:54;;;;;;;27.92;18.88;;;12.20;84.90;;;;;;4975057;28;92429;-69
2021/11/20 06:55:42;;;;;;;25.90;20.50;;;12.20;84.90;;;;;;4943399;28;95744;-70
2021/11/20 06:58:41;;;;;;;27.08;18.77;;;12.10;84.80;;;;;;4975054;28;97511;-70
2021/11/20 07:01:18;;;;;;;25.17;19.05;;;12.20;85.00;;;;;;4975097;28;92454;-69
2021/11/20 07:03:53;;;;;;;29.45;19.65;;;12.20;84.90;;;;;;4975021;28;92484;-70
2021/11/20 07:06:32;;;;;;;28.25;18.27;;;12.20;84.80;;;;;;4975175;28;95338;-70
2021/11/20 07:09:01;;;;;;;30.83;20.20;;;12.20;85.00;;;;;;4976129;28;94030;-69
2021/11/20 07:11:28;;;;;;;28.92;20.80;;;12.20;85.60;;;;;;4958745;28;92585;-70
2021/11/20 07:13:55;;;;;;;33.35;19.75;;;12.20;84.90;;;;;;4975173;28;92038;-70
2021/11/20 07:16:25;;;;;;;30.45;19.67;;;12.20;84.90;;;;;;4974749;28;94027;-70
2021/11/20 07:18:54;;;;;;;30.25;20.27;;;12.20;84.70;;;;;;4974645;28;95351;-70
2021/11/20 07:21:56;;;;;;;34.03;21.58;;;12.20;85.00;;;;;;4933200;28;94981;-70
2021/11/20 07:24:50;;;;;;;33.07;21.83;;;12.20;84.80;;;;;;4971713;28;93679;-70
2021/11/20 07:27:17;;;;;;;28.92;21.80;;;12.20;84.80;;;;;;4974614;28;95585;-70
2021/11/20 07:29:44;;;;;;;29.70;20.95;;;12.20;84.90;;;;;;4973321;28;96009;-70
2021/11/20 07:32:16;;;;;;;29.10;21.15;;;12.30;84.60;;;;;;4959244;28;92542;-70
2021/11/20 07:34:44;;;;;;;32.75;22.50;;;12.30;84.60;;;;;;4974609;28;92495;-70
2021/11/20 07:37:11;;;;;;;32.88;21.27;;;12.30;84.60;;;;;;4974767;28;95282;-70
2021/11/20 07:39:38;;;;;;;30.65;21.02;;;12.30;84.40;;;;;;4974576;28;95973;-70
2021/11/20 07:42:06;;;;;;;26.42;19.75;;;12.30;84.30;;;;;;4974561;28;92595;-69
2021/11/20 07:44:40;;;;;;;30.98;21.25;;;12.30;84.20;;;;;;4974106;28;92559;-70
2021/11/20 07:47:08;;;;;;;31.65;21.20;;;12.30;84.20;;;;;;4957128;28;98111;-69
2021/11/20 07:49:43;;;;;;;28.95;19.50;;;12.40;84.10;;;;;;4973984;28;97710;-69
2021/11/20 07:52:11;;;;;;;26.45;20.48;;;12.40;84.00;;;;;;4974565;28;92546;-70
2021/11/20 07:54:39;;;;;;;28.58;20.55;;;12.40;83.80;;;;;;4974272;28;92635;-69
2021/11/20 07:57:26;;;;;;;30.08;21.48;;;12.40;83.80;;;;;;4953873;28;93065;-69
2021/11/20 07:59:58;;;;;;;30.42;21.08;;;12.40;83.60;;;;;;4973968;28;95467;-70
2021/11/20 08:02:44;;;;;;;31.08;20.35;;;12.40;83.40;;;;;;4973420;28;92559;-69
2021/11/20 08:05:25;;;;;;;28.38;20.80;;;12.40;83.30;;;;;;4974965;28;92140;-69
2021/11/20 08:08:20;;;;;;;29.02;21.98;;;12.50;83.30;;;;;;4962003;28;95044;-69
2021/11/20 08:11:10;;;;;;;27.08;22.00;;;12.50;83.00;;;;;;4966787;28;92717;-69
2021/11/20 08:13:37;;;;;;;30.95;20.90;;;12.50;83.00;;;;;;4956933;28;94845;-69
2021/11/20 08:16:24;;;;;;;25.98;19.80;;;12.50;82.60;;;;;;4973049;28;92367;-69
2021/11/20 08:19:17;;;;;;;27.45;20.73;;;12.50;82.50;;;;;;4974640;28;93935;-69
2021/11/20 08:22:10;;;;;;;28.38;20.50;;;12.50;82.40;;;;;;4957890;28;93388;-69
2021/11/20 08:24:38;;;;;;;27.45;19.52;;;12.60;82.30;;;;;;4973980;28;92514;-69
2021/11/20 08:27:09;;;;;;;26.90;20.83;;;12.60;82.10;;;;;;4973940;28;92640;-69
2021/11/20 08:29:47;;;;;;;23.05;19.55;;;12.70;82.00;;;;;;4973580;28;95681;-69
2021/11/20 08:32:14;;;;;;;23.98;20.35;;;12.70;81.60;;;;;;4974271;28;94134;-69
2021/11/20 08:34:56;;;;;;;25.80;20.02;;;12.70;81.60;;;;;;4973553;28;92601;-69
2021/11/20 08:37:33;;;;;;;27.33;21.15;;;12.70;81.40;;;;;;4973968;28;92569;-69
2021/11/20 08:40:13;;;;;;;25.73;19.33;;;12.70;81.20;;;;;;4972286;28;97988;-69
2021/11/20 08:42:41;;;;;;;26.77;19.83;;;12.80;80.90;;;;;;4973374;28;97962;-68
2021/11/20 08:45:23;;;;;;;26.42;20.90;;;12.80;80.90;;;;;;4973311;28;92483;-68
2021/11/20 08:47:53;;;;;;;25.23;19.23;;;12.90;80.70;;;;;;4973538;28;92504;-69
2021/11/20 08:50:28;;;;;;;25.65;18.90;;;12.90;80.60;;;;;;4957392;28;94976;-69
2021/11/20 08:52:55;;;;;;;24.02;18.90;;;12.90;80.50;;;;;;4973340;28;94351;-69
2021/11/20 08:55:24;;;;;;;23.88;20.08;;;12.90;80.20;;;;;;4973810;28;92455;-69
2021/11/20 08:57:55;;;;;;;25.02;19.75;;;12.90;80.10;;;;;;4973417;28;91741;-69
2021/11/20 09:00:44;;;;;;;24.50;18.88;;;13.00;80.00;;;;;;4973714;28;94377;-70
2021/11/20 09:03:45;;;;;;;23.85;19.17;;;13.10;79.70;;;;;;4973306;28;95580;-70
2021/11/20 09:06:22;;;;;;;29.50;21.15;;;13.10;79.50;;;;;;4972131;28;95247;-69
2021/11/20 09:09:18;;;;;;;27.80;20.45;;;13.10;79.50;;;;;;4972790;28;92615;-70
2021/11/20 09:11:50;;;;;;;24.17;17.75;;;13.20;79.30;;;;;;4972663;28;95135;-69
2021/11/20 09:14:28;;;;;;;25.83;20.02;;;13.20;79.40;;;;;;4973066;28;95400;-70
2021/11/20 09:17:12;;;;;;;24.98;19.77;;;13.20;79.10;;;;;;4972954;28;92577;-69
2021/11/20 09:19:41;;;;;;;26.95;19.65;;;13.20;78.90;;;;;;4973245;28;92522;-69
2021/11/20 09:22:09;;;;;;;27.63;19.40;;;13.20;78.70;;;;;;4973192;28;95950;-69
2021/11/20 09:24:49;;;;;;;26.35;19.98;;;13.20;78.80;;;;;;4974801;28;92842;-70
2021/11/20 09:27:43;;;;;;;25.85;19.23;;;13.20;78.60;;;;;;4972880;28;92557;-69
2021/11/20 09:30:17;;;;;;;27.73;20.25;;;13.20;78.50;;;;;;4956800;28;92617;-69
2021/11/20 09:32:44;;;;;;;27.60;20.95;;;13.30;78.30;;;;;;4955684;28;97879;-69
2021/11/20 09:35:23;;;;;;;28.75;21.80;;;13.30;78.20;;;;;;4958200;28;98093;-69
2021/11/20 09:38:21;;;;;;;28.08;21.52;;;13.30;78.00;;;;;;4937060;28;92685;-69
2021/11/20 09:41:06;;;;;;;27.75;21.23;;;13.40;78.00;;;;;;4973137;28;92980;-70
2021/11/20 09:43:37;;;;;;;25.85;20.30;;;13.40;77.30;;;;;;4972676;28;95099;-69
2021/11/20 09:46:27;;;;;;;24.90;20.10;;;13.40;77.60;;;;;;4972698;28;95589;-69
2021/11/20 09:49:03;;;;;;;28.42;20.98;;;13.40;77.40;;;;;;4972793;28;92483;-70
2021/11/20 09:51:36;;;;;;;26.95;21.52;;;13.40;77.40;;;;;;4957236;28;91737;-69
2021/11/20 09:54:26;;;;;;;27.48;21.73;;;13.40;77.30;;;;;;4974415;28;95485;-69
2021/11/20 09:57:02;;;;;;;26.42;20.85;;;13.50;77.10;;;;;;4977458;28;92776;-69
2021/11/20 09:59:29;;;;;;;23.75;19.45;;;13.40;77.10;;;;;;4975017;28;94818;-70
2021/11/20 10:02:26;;;;;;;26.50;19.75;;;13.40;77.10;;;;;;4976194;28;92474;-69
2021/11/20 10:04:56;;;;;;;23.48;19.40;;;13.40;76.80;;;;;;4977318;28;92476;-70
2021/11/20 10:07:38;;;;;;;26.52;20.17;;;13.40;76.60;;;;;;4976099;28;94720;-69
2021/11/20 10:10:14;;;;;;;25.00;20.33;;;13.40;76.50;;;;;;4977378;28;92438;-77
2021/11/20 10:12:47;;;;;;;25.30;20.55;;;13.30;76.60;;;;;;4977528;28;92351;-77
2021/11/20 10:15:29;;;;;;;25.05;20.35;;;13.40;76.60;;;;;;4975659;28;94380;-77
2021/11/20 10:18:00;;;;;;;23.80;19.73;;;13.30;76.50;;;;;;4977416;28;94495;-77
2021/11/20 10:20:40;;;;;;;26.15;21.10;;;13.40;76.30;;;;;;4977510;28;92855;-77
2021/11/20 10:23:10;;;;;;;23.08;19.02;;;13.30;76.20;;;;;;4977232;28;92455;-77
2021/11/20 10:26:04;;;;;;;25.92;20.77;;;13.30;76.50;;;;;;4975436;28;96713;-77
2021/11/20 10:28:36;;;;;;;24.88;20.77;;;13.40;76.70;;;;;;4975430;28;95263;-77
2021/11/20 10:31:41;;;;;;;28.23;22.40;;;13.30;76.40;;;;;;4975382;28;92514;-77
2021/11/20 10:34:25;;;;;;;26.42;22.52;;;13.40;76.20;;;;;;4958551;28;92536;-77
2021/11/20 10:36:53;;;;;;;26.75;22.98;;;13.40;76.20;;;;;;4976574;28;94258;-77
2021/11/20 10:39:34;;;;;;;26.98;23.33;;;13.30;76.10;;;;;;4974973;28;106533;-77
2021/11/20 10:42:13;;;;;;;26.33;22.83;;;13.40;76.10;;;;;;4976651;28;92549;-77
2021/11/20 10:44:43;;;;;;;26.73;22.45;;;13.40;76.10;;;;;;4977022;28;91714;-77
2021/11/20 10:47:11;;;;;;;27.10;22.67;;;13.30;76.00;;;;;;4975175;28;93271;-77
2021/11/20 10:49:56;;;;;;;30.40;24.85;;;13.30;76.20;;;;;;4976621;28;92933;-77
2021/11/20 10:53:01;;;;;;;29.45;23.77;;;13.40;76.30;;;;;;4975394;28;94932;-77
2021/11/20 10:55:55;;;;;;;31.13;24.52;;;13.40;76.00;;;;;;4976926;28;92888;-77
2021/11/20 10:58:41;;;;;;;;;;;13.40;76.40;;;;;;4975128;28;95815;-77
2021/11/20 11:01:32;;;;;;;28.48;22.90;;;13.30;75.70;;;;;;4977736;28;92448;-77
2021/11/20 11:04:20;;;;;;;26.80;21.67;;;13.40;76.00;;;;;;4975471;28;92428;-77
2021/11/20 11:07:00;;;;;;;30.33;24.13;;;13.30;75.60;;;;;;4976950;28;92891;-77
2021/11/20 11:09:47;;;;;;;31.58;25.67;;;13.30;76.10;;;;;;4976404;28;92949;-77
2021/11/20 11:12:26;;;;;;;33.85;26.67;;;13.30;75.60;;;;;;4976392;28;95636;-77
2021/11/20 11:15:02;;;;;;;34.22;26.80;;;13.30;75.90;;;;;;4976316;28;92532;-77
2021/11/20 11:17:43;;;;;;;31.38;26.27;;;13.20;75.90;;;;;;4976076;28;92408;-77
2021/11/20 11:20:18;;;;;;;29.42;24.50;;;13.20;75.90;;;;;;4974810;28;95680;-77
2021/11/20 11:23:07;;;;;;;30.25;25.08;;;13.20;76.00;;;;;;4976216;28;95313;-77
2021/11/20 11:25:50;;;;;;;33.55;26.25;;;13.20;76.70;;;;;;4975366;28;92486;-77
2021/11/20 11:28:27;;;;;;;33.72;26.60;;;13.10;76.30;;;;;;4976285;28;92433;-77
2021/11/20 11:31:44;;;;;;;34.25;28.17;;;13.10;76.70;;;;;;4976259;28;93170;-77
2021/11/20 11:34:17;;;;;;;33.33;27.70;;;13.10;76.90;;;;;;4931890;28;94279;-77
2021/11/20 11:37:11;;;;;;;31.50;25.30;;;13.00;77.10;;;;;;4974750;28;92733;-77
2021/11/20 11:40:01;;;;;;;32.10;25.35;;;13.00;77.50;;;;;;4975405;28;91779;-77
2021/11/20 11:42:52;;;;;;;33.67;27.27;;;13.00;77.90;;;;;;4975615;28;93155;-77
2021/11/20 11:45:28;;;;;;;35.45;27.90;;;13.00;77.50;;;;;;4975619;28;93142;-77
2021/11/20 11:48:15;;;;;;;33.50;26.15;;;13.00;77.60;;;;;;4973313;28;94942;-77
2021/11/20 11:50:59;;;;;;;36.10;28.80;;;13.00;77.70;;;;;;4975856;28;92379;-77
2021/11/20 11:53:44;;;;;;;38.38;28.88;;;13.00;78.00;;;;;;4975810;28;93089;-77
2021/11/20 11:56:28;;;;;;;34.97;26.73;;;13.00;77.70;;;;;;4975637;28;92989;-77
2021/11/20 11:59:10;;;;;;;37.10;28.23;;;13.00;77.50;;;;;;4976084;28;92458;-77
2021/11/20 12:01:59;;;;;;;35.05;27.23;;;13.00;78.00;;;;;;4974281;28;92610;-77
2021/11/20 12:04:29;;;;;;;37.80;28.05;;;13.00;78.10;;;;;;4975438;28;93169;-77
2021/11/20 12:07:24;;;;;;;40.85;29.17;;;13.00;78.40;;;;;;4974544;28;95304;-77
2021/11/20 12:10:07;;;;;;;43.08;28.95;;;13.00;78.10;;;;;;4975761;28;92833;-77
2021/11/20 12:12:51;;;;;;;43.60;30.88;;;12.90;79.00;;;;;;4973983;28;92420;-77
2021/11/20 12:15:18;;;;;;;43.42;31.90;;;13.00;79.00;;;;;;4974061;28;95526;-77
2021/11/20 12:17:54;;;;;;;44.13;31.50;;;13.00;79.00;;;;;;4973055;28;108864;-77
2021/11/20 12:20:38;;;;;;;45.63;31.75;;;13.00;78.80;;;;;;4975335;28;94377;-77
2021/11/20 12:23:25;;;;;;;43.78;31.75;;;13.10;78.90;;;;;;4973791;28;92419;-77
2021/11/20 12:26:14;;;;;;;42.85;30.30;;;13.00;78.90;;;;;;4973604;28;96186;-77
2021/11/20 12:28:50;;;;;;;44.50;31.55;;;13.10;79.40;;;;;;4974870;28;92823;-77
2021/11/20 12:31:54;;;;;;;44.88;31.70;;;13.00;79.50;;;;;;4974917;28;92364;-77
2021/11/20 12:35:01;;;;;;;45.00;30.83;;;13.10;79.40;;;;;;4975548;28;91695;-77
2021/11/20 12:38:10;;;;;;;47.97;32.72;;;13.00;79.90;;;;;;4975151;28;93108;-77
2021/11/20 12:40:51;;;;;;;52.50;33.47;;;13.00;80.40;;;;;;4958733;28;92487;-77
2021/11/20 12:43:47;;;;;;;51.42;33.58;;;13.00;80.30;;;;;;4972225;28;94840;-77
2021/11/20 12:46:29;;;;;;;48.38;34.53;;;13.00;80.30;;;;;;4973980;28;92385;-77
2021/11/20 12:49:15;;;;;;;51.97;33.63;;;12.90;80.40;;;;;;4975012;28;93975;-77
2021/11/20 12:51:53;;;;;;;50.60;34.95;;;12.90;80.80;;;;;;4974787;28;93683;-77
2021/11/20 12:54:42;;;;;;;53.85;33.90;;;13.00;80.60;;;;;;4974907;28;92486;-77
2021/11/20 12:57:11;;;;;;;53.92;34.85;;;13.00;80.70;;;;;;4975076;28;92557;-77
2021/11/20 12:59:44;;;;;;;49.85;32.83;;;12.90;80.80;;;;;;4974612;28;93212;-77
2021/11/20 13:02:47;;;;;;;55.00;35.17;;;13.00;80.80;;;;;;4974984;28;95987;-77
2021/11/20 13:05:29;;;;;;;47.58;31.38;;;12.90;81.10;;;;;;4973433;28;92452;-77
2021/11/20 13:08:34;;;;;;;51.50;33.40;;;12.90;81.20;;;;;;4974770;28;92387;-77
2021/11/20 13:11:12;;;;;;;57.05;33.70;;;12.80;81.20;;;;;;4971871;28;96684;-77
2021/11/20 13:14:15;;;;;;;58.92;35.33;;;12.80;81.40;;;;;;4974541;28;97784;-77
2021/11/20 13:16:58;;;;;;;58.83;33.85;;;12.80;81.70;;;;;;4991808;28;99032;-77